Time;durP1;ratioP1;P1;durP2;ratioP2;P2;SDS_P1;SDS_P2;PMS_P1;PMS_P2;Temp;Humidity;BMP_temperature;BMP_pressure;BME280_temperature;BME280_humidity;BME280_pressure;Samples;Min_cycle;Max_cycle;Signal;HPM_P1;HPM_P2
2024/01/11 00:02:11;;;;;;;;;;;;;;;-3.89;77.48;103302.25;5037024;28;19920;-74
2024/01/11 00:04:36;;;;;;;;;;;;;;;-3.90;77.80;103308.16;5042386;28;19959;-74
2024/01/11 00:07:01;;;;;;;;;;;;;;;-3.86;78.02;103307.53;5043406;28;19923;-74
2024/01/11 00:09:27;;;;;;;;;;;;;;;-3.85;78.36;103317.00;5034483;28;20128;-74
2024/01/11 00:11:52;;;;;;;;;;;;;;;-3.94;78.60;103319.03;5034569;28;19920;-74
2024/01/11 00:14:17;;;;;;;;;;;;;;;-3.95;78.63;103317.25;5035715;28;19919;-74
2024/01/11 00:16:42;;;;;;;;;;;;;;;-3.88;78.94;103321.94;5034019;28;19974;-74
2024/01/11 00:19:09;;;;;;;;;;;;;;;-3.90;78.58;103308.16;5034964;28;19925;-74
2024/01/11 00:21:34;;;;;;;;;;;;;;;-3.93;78.67;103318.22;5032419;28;19980;-74
2024/01/11 00:23:59;;;;;;;;;;;;;;;-3.91;78.81;103325.19;5026277;28;19917;-74
2024/01/11 00:26:24;;;;;;;;;;;;;;;-3.85;78.84;103322.13;5025766;28;19928;-74
2024/01/11 00:28:50;;;;;;;;;;;;;;;-3.88;78.85;103310.00;5024127;28;20144;-74
2024/01/11 00:31:15;;;;;;;;;;;;;;;-3.90;79.00;103303.03;5031530;28;20145;-74
2024/01/11 00:33:40;;;;;;;;;;;;;;;-3.94;79.01;103308.78;5035586;28;20112;-74
2024/01/11 00:36:05;;;;;;;;;;;;;;;-3.96;79.38;103316.38;5029605;28;19948;-74
2024/01/11 00:38:31;;;;;;;;;;;;;;;-3.97;79.56;103308.59;5032416;28;19917;-74
2024/01/11 00:40:56;;;;;;;;;;;;;;;-3.98;79.92;103309.38;5034963;28;19975;-74
2024/01/11 00:43:21;;;;;;;;;;;;;;;-3.92;79.74;103314.88;5046277;28;19916;-74
2024/01/11 00:45:46;;;;;;;;;;;;;;;-3.86;80.01;103310.09;5052067;28;19917;-74
2024/01/11 00:48:12;;;;;;;;;;;;;;;-3.86;79.42;103307.53;5035695;28;19916;-74
2024/01/11 00:50:37;;;;;;;;;;;;;;;-3.85;79.45;103304.19;5035306;28;19905;-74
2024/01/11 00:53:03;;;;;;;;;;;;;;;-3.90;79.46;103316.72;5034508;28;20196;-74
2024/01/11 00:55:28;;;;;;;;;;;;;;;-3.94;79.66;103324.13;5035491;28;19909;-75
2024/01/11 00:57:53;;;;;;;;;;;;;;;-3.94;79.84;103319.88;5022736;28;20471;-75
2024/01/11 01:00:19;;;;;;;;;;;;;;;-3.92;79.83;103320.88;5035596;28;19979;-75
2024/01/11 01:02:44;;;;;;;;;;;;;;;-3.90;79.85;103326.94;5034283;28;19984;-75
2024/01/11 01:05:10;;;;;;;;;;;;;;;-3.94;80.03;103327.56;5034673;28;19954;-75
2024/01/11 01:07:35;;;;;;;;;;;;;;;-3.98;79.97;103319.59;5022195;28;19993;-75
2024/01/11 01:10:00;;;;;;;;;;;;;;;-4.07;80.37;103318.28;5035183;28;19912;-75
2024/01/11 01:12:25;;;;;;;;;;;;;;;-4.07;80.55;103322.53;5029975;28;19917;-75
2024/01/11 01:14:51;;;;;;;;;;;;;;;-4.13;81.34;103320.50;5034891;28;19913;-75
2024/01/11 01:17:17;;;;;;;;;;;;;;;-4.17;81.79;103315.97;5025578;28;19987;-75
2024/01/11 01:19:42;;;;;;;;;;;;;;;-4.14;82.00;103312.72;5034725;28;19920;-75
2024/01/11 01:22:07;;;;;;;;;;;;;;;-4.14;82.37;103313.59;5032680;28;19983;-75
2024/01/11 01:24:32;;;;;;;;;;;;;;;-4.12;82.71;103327.38;5033250;28;19916;-75
2024/01/11 01:26:58;;;;;;;;;;;;;;;-4.07;82.79;103327.66;5023987;28;19917;-75
2024/01/11 01:29:23;;;;;;;;;;;;;;;-4.03;82.60;103321.03;5050748;28;19916;-75
2024/01/11 01:31:48;;;;;;;;;;;;;;;-4.02;82.43;103330.47;5035229;28;20120;-74
2024/01/11 01:34:14;;;;;;;;;;;;;;;-3.99;82.41;103333.22;5034173;28;20196;-75
2024/01/11 01:36:40;;;;;;;;;;;;;;;-4.06;82.42;103338.00;5033492;28;20239;-75
2024/01/11 01:39:05;;;;;;;;;;;;;;;-4.07;82.36;103335.34;5020298;28;19917;-75
2024/01/11 01:41:30;;;;;;;;;;;;;;;-4.09;82.46;103342.91;5028288;28;20245;-75
2024/01/11 01:43:55;;;;;;;;;;;;;;;-4.12;82.69;103341.84;5026354;28;19921;-75
2024/01/11 01:46:24;;;;;;;;;;;;;;;-4.14;82.68;103346.88;5033554;28;19917;-75
2024/01/11 01:48:51;;;;;;;;;;;;;;;-4.15;82.81;103352.75;5025279;28;20026;-74
2024/01/11 01:51:17;;;;;;;;;;;;;;;-4.14;82.81;103353.66;5014619;28;20244;-75
2024/01/11 01:53:42;;;;;;;;;;;;;;;-4.20;82.90;103356.75;5017759;28;19917;-75
2024/01/11 01:56:08;;;;;;;;;;;;;;;-4.17;83.12;103354.34;5017163;28;19932;-75
2024/01/11 01:58:34;;;;;;;;;;;;;;;-4.21;83.07;103352.41;5032028;28;19984;-75
2024/01/11 02:00:59;;;;;;;;;;;;;;;-4.23;83.23;103351.44;5033396;28;20251;-75
2024/01/11 02:03:27;;;;;;;;;;;;;;;-4.20;83.30;103354.19;5033466;28;20132;-74
2024/01/11 02:05:53;;;;;;;;;;;;;;;-4.22;83.58;103349.75;5033738;28;19917;-75
2024/01/11 02:08:20;;;;;;;;;;;;;;;-4.26;83.39;103359.81;5020136;28;19963;-74
2024/01/11 02:10:45;;;;;;;;;;;;;;;-4.23;83.56;103356.56;5033701;28;19921;-74
2024/01/11 02:13:11;;;;;;;;;;;;;;;-4.30;83.50;103359.53;5034174;28;19952;-74
2024/01/11 02:15:37;;;;;;;;;;;;;;;-4.30;83.67;103352.72;5033655;28;19966;-75
2024/01/11 02:18:02;;;;;;;;;;;;;;;-4.23;84.04;103364.22;5019903;28;20014;-74
2024/01/11 02:20:27;;;;;;;;;;;;;;;-4.21;83.83;103359.22;5020145;28;19917;-74
2024/01/11 02:22:56;;;;;;;;;;;;;;;-4.23;83.77;103361.66;5015094;28;19928;-75
2024/01/11 02:25:21;;;;;;;;;;;;;;;-4.22;83.64;103366.00;5021940;28;19963;-74
2024/01/11 02:27:46;;;;;;;;;;;;;;;-4.23;83.86;103368.47;5027723;28;20155;-74
2024/01/11 02:30:12;;;;;;;;;;;;;;;-4.27;83.90;103358.03;5033215;28;20186;-74
2024/01/11 02:32:37;;;;;;;;;;;;;;;-4.31;83.78;103361.22;5036832;28;20139;-74
2024/01/11 02:35:03;;;;;;;;;;;;;;;-4.31;83.67;103362.88;5031609;28;19913;-74
2024/01/11 02:37:29;;;;;;;;;;;;;;;-4.32;83.75;103363.66;5030268;28;19955;-74
2024/01/11 02:39:54;;;;;;;;;;;;;;;-4.35;83.91;103368.59;5033721;28;19905;-74
2024/01/11 02:42:20;;;;;;;;;;;;;;;-4.43;84.10;103373.25;5018133;28;20276;-74
2024/01/11 02:44:45;;;;;;;;;;;;;;;-4.40;84.30;103372.53;5031986;28;19919;-74
2024/01/11 02:47:10;;;;;;;;;;;;;;;-4.47;84.53;103364.50;5027586;28;19917;-74
2024/01/11 02:49:35;;;;;;;;;;;;;;;-4.56;84.52;103360.50;5036613;28;20057;-74
2024/01/11 02:52:00;;;;;;;;;;;;;;;-4.67;84.90;103360.72;5019173;28;19917;-74
2024/01/11 02:54:26;;;;;;;;;;;;;;;-4.66;85.42;103372.72;5030356;28;19913;-74
2024/01/11 02:56:51;;;;;;;;;;;;;;;-4.70;85.68;103372.41;5036384;28;20158;-74
2024/01/11 02:59:16;;;;;;;;;;;;;;;-4.76;85.88;103372.91;5037141;28;20251;-74
2024/01/11 03:01:41;;;;;;;;;;;;;;;-4.70;86.04;103368.19;5024282;28;19917;-74
2024/01/11 03:04:07;;;;;;;;;;;;;;;-4.66;85.84;103374.38;5026793;28;19914;-74
2024/01/11 03:06:32;;;;;;;;;;;;;;;-4.66;85.85;103364.13;5036680;28;19924;-74
2024/01/11 03:08:57;;;;;;;;;;;;;;;-4.67;86.15;103365.81;5036924;28;20173;-74
2024/01/11 03:11:22;;;;;;;;;;;;;;;-4.71;86.21;103361.31;5036808;28;19970;-74
2024/01/11 03:13:48;;;;;;;;;;;;;;;-4.65;86.09;103368.47;5037331;28;19995;-74
2024/01/11 03:16:13;;;;;;;;;;;;;;;-4.65;86.33;103361.69;5036632;28;20158;-74
2024/01/11 03:18:39;;;;;;;;;;;;;;;-4.59;86.39;103363.72;5022915;28;20010;-74
2024/01/11 03:21:04;;;;;;;;;;;;;;;-4.55;86.43;103363.13;5036348;28;19984;-74
2024/01/11 03:23:30;;;;;;;;;;;;;;;-4.53;86.31;103358.09;5037187;28;19913;-74
2024/01/11 03:25:55;;;;;;;;;;;;;;;-4.47;86.20;103358.50;5032975;28;19917;-74
2024/01/11 03:28:20;;;;;;;;;;;;;;;-4.41;86.17;103350.31;5022676;28;20117;-74
2024/01/11 03:30:45;;;;;;;;;;;;;;;-4.37;86.12;103353.16;5034362;28;20633;-74
2024/01/11 03:33:10;;;;;;;;;;;;;;;-4.35;85.83;103360.91;5033646;28;20140;-74
2024/01/11 03:35:38;;;;;;;;;;;;;;;-4.39;85.45;103362.41;5036550;28;19944;-74
2024/01/11 03:38:03;;;;;;;;;;;;;;;-4.47;85.29;103366.19;5034605;28;19947;-74
2024/01/11 03:40:29;;;;;;;;;;;;;;;-4.52;85.31;103367.56;5036563;28;20201;-74
2024/01/11 03:42:54;;;;;;;;;;;;;;;-4.57;85.39;103367.28;5033919;28;19917;-74
2024/01/11 03:45:19;;;;;;;;;;;;;;;-4.63;85.64;103372.88;5036481;28;19952;-74
2024/01/11 03:47:44;;;;;;;;;;;;;;;-4.76;86.14;103372.03;5027499;28;19917;-74
2024/01/11 03:50:10;;;;;;;;;;;;;;;-4.83;86.65;103379.31;5032321;28;19921;-74
2024/01/11 03:52:35;;;;;;;;;;;;;;;-4.83;87.01;103374.19;5035310;28;20124;-74
2024/01/11 03:55:00;;;;;;;;;;;;;;;-4.82;87.47;103377.63;5036567;28;20115;-74
2024/01/11 03:57:25;;;;;;;;;;;;;;;-4.87;87.60;103379.03;5031977;28;19963;-74
2024/01/11 03:59:51;;;;;;;;;;;;;;;-4.92;87.73;103376.16;5035303;28;20132;-74
2024/01/11 04:02:16;;;;;;;;;;;;;;;-4.91;88.23;103371.94;5035570;28;19913;-74
2024/01/11 04:04:41;;;;;;;;;;;;;;;-5.01;88.58;103370.47;5035088;28;19921;-74
2024/01/11 04:07:07;;;;;;;;;;;;;;;-4.96;88.49;103371.66;5034167;28;19917;-74
2024/01/11 04:09:32;;;;;;;;;;;;;;;-4.90;88.63;103371.16;5018145;28;20204;-74
2024/01/11 04:11:57;;;;;;;;;;;;;;;-4.89;88.56;103381.50;5017239;28;19930;-74
2024/01/11 04:14:22;;;;;;;;;;;;;;;-4.92;88.63;103378.72;5030864;28;20100;-74
2024/01/11 04:16:47;;;;;;;;;;;;;;;-4.94;88.92;103371.75;5049011;28;20121;-74
2024/01/11 04:19:13;;;;;;;;;;;;;;;-4.92;88.71;103370.19;5035203;28;19928;-74
2024/01/11 04:21:38;;;;;;;;;;;;;;;-5.00;88.62;103382.47;5035363;28;19913;-74
2024/01/11 04:24:05;;;;;;;;;;;;;;;-5.01;89.19;103384.13;5034954;28;19917;-74
2024/01/11 04:26:31;;;;;;;;;;;;;;;-4.98;89.21;103383.47;5035449;28;19943;-74
2024/01/11 04:28:58;;;;;;;;;;;;;;;-4.90;89.12;103378.84;5030271;28;19917;-74
2024/01/11 04:31:23;;;;;;;;;;;;;;;-4.83;89.08;103381.88;5035761;28;19916;-74
2024/01/11 04:33:48;;;;;;;;;;;;;;;-4.79;89.24;103393.16;5035129;28;19966;-74
2024/01/11 04:36:13;;;;;;;;;;;;;;;-4.80;89.05;103387.94;5034299;28;19921;-74
2024/01/11 04:38:39;;;;;;;;;;;;;;;-4.82;89.06;103400.63;5015355;28;19909;-74
2024/01/11 04:41:13;;;;;;;;;;;;;;;-4.89;89.02;103401.06;5055327;28;20175;-74
2024/01/11 04:43:39;;;;;;;;;;;;;;;-4.85;89.14;103392.78;5044883;28;20252;-74
2024/01/11 04:46:17;;;;;;;;;;;;;;;-4.80;89.17;103398.19;5034156;28;20267;-74
2024/01/11 04:48:42;;;;;;;;;;;;;;;-4.81;89.08;103404.97;5035227;28;20260;-74
2024/01/11 04:51:07;;;;;;;;;;;;;;;-4.88;88.88;103413.91;5034793;28;19921;-74
2024/01/11 04:53:32;;;;;;;;;;;;;;;-4.96;89.10;103410.00;5035171;28;19951;-74
2024/01/11 04:55:58;;;;;;;;;;;;;;;-4.92;89.09;103411.09;5025120;28;19927;-74
2024/01/11 04:58:23;;;;;;;;;;;;;;;-4.86;89.40;103406.34;5035161;28;19925;-74
2024/01/11 05:00:48;;;;;;;;;;;;;;;-4.80;89.27;103406.75;5034637;28;19924;-74
2024/01/11 05:03:14;;;;;;;;;;;;;;;-4.79;89.00;103411.06;5034947;28;19913;-74
2024/01/11 05:05:39;;;;;;;;;;;;;;;-4.80;88.83;103418.63;5027105;28;19916;-74
2024/01/11 05:08:04;;;;;;;;;;;;;;;-4.83;88.50;103422.78;5034881;28;19967;-74
2024/01/11 05:10:29;;;;;;;;;;;;;;;-4.83;88.90;103432.13;5033419;28;19925;-74
2024/01/11 05:12:55;;;;;;;;;;;;;;;-4.87;88.78;103431.03;5034733;28;20182;-74
2024/01/11 05:15:20;;;;;;;;;;;;;;;-4.98;89.26;103437.13;5030495;28;20140;-74
2024/01/11 05:17:45;;;;;;;;;;;;;;;-5.06;89.85;103436.66;5034288;28;20139;-74
2024/01/11 05:20:10;;;;;;;;;;;;;;;-4.94;90.03;103433.97;5034357;28;20098;-74
2024/01/11 05:22:36;;;;;;;;;;;;;;;-4.86;89.77;103435.38;5034544;28;20142;-74
2024/01/11 05:25:02;;;;;;;;;;;;;;;-4.83;89.78;103432.13;5032805;28;19916;-74
2024/01/11 05:27:27;;;;;;;;;;;;;;;-4.81;89.53;103430.53;5034087;28;20327;-74
2024/01/11 05:29:52;;;;;;;;;;;;;;;-4.79;89.45;103425.53;5040311;28;19913;-74
2024/01/11 05:32:17;;;;;;;;;;;;;;;-4.80;89.28;103423.75;5035217;28;19916;-74
2024/01/11 05:34:43;;;;;;;;;;;;;;;-4.81;89.01;103412.66;5034511;28;19919;-74
2024/01/11 05:37:08;;;;;;;;;;;;;;;-4.82;89.06;103413.41;5033250;28;20087;-74
2024/01/11 05:39:33;;;;;;;;;;;;;;;-4.89;88.74;103434.28;5034371;28;19905;-74
2024/01/11 05:41:58;;;;;;;;;;;;;;;-4.91;88.54;103428.16;5031037;28;19928;-74
2024/01/11 05:44:23;;;;;;;;;;;;;;;-4.92;88.72;103428.97;5033106;28;19905;-74
2024/01/11 05:46:49;;;;;;;;;;;;;;;-4.96;88.47;103429.56;5023179;28;20136;-74
2024/01/11 05:49:14;;;;;;;;;;;;;;;-4.97;88.55;103426.09;5015365;28;20205;-74
2024/01/11 05:51:40;;;;;;;;;;;;;;;-5.02;88.58;103430.03;5024781;28;19921;-74
2024/01/11 05:54:05;;;;;;;;;;;;;;;-5.04;88.44;103429.97;5014096;28;19914;-74
2024/01/11 05:56:30;;;;;;;;;;;;;;;-5.07;88.47;103436.53;5021480;28;20189;-74
2024/01/11 05:58:55;;;;;;;;;;;;;;;-5.10;88.44;103438.88;5018822;28;20249;-74
2024/01/11 06:01:21;;;;;;;;;;;;;;;-5.13;88.36;103438.69;5029013;28;19917;-74
2024/01/11 06:03:47;;;;;;;;;;;;;;;-5.14;88.52;103432.69;5014821;28;19925;-74
2024/01/11 06:06:12;;;;;;;;;;;;;;;-5.11;88.76;103429.44;5029521;28;19917;-74
2024/01/11 06:08:37;;;;;;;;;;;;;;;-5.13;88.68;103428.44;5034008;28;20207;-74
2024/01/11 06:11:03;;;;;;;;;;;;;;;-5.14;88.65;103426.69;5029500;28;20189;-74
2024/01/11 06:13:29;;;;;;;;;;;;;;;-5.17;88.80;103431.59;5014824;28;19940;-74
2024/01/11 06:15:54;;;;;;;;;;;;;;;-5.24;88.59;103431.22;5026511;28;20212;-74
2024/01/11 06:18:19;;;;;;;;;;;;;;;-5.26;88.67;103440.44;5033074;28;20112;-74
2024/01/11 06:20:44;;;;;;;;;;;;;;;-5.31;88.77;103453.69;5038075;28;20105;-74
2024/01/11 06:23:10;;;;;;;;;;;;;;;-5.36;88.86;103445.72;5021518;28;19913;-74
2024/01/11 06:25:35;;;;;;;;;;;;;;;-5.38;88.90;103434.53;5028545;28;19980;-74
2024/01/11 06:28:02;;;;;;;;;;;;;;;-5.40;89.02;103423.31;5028501;28;19917;-74
2024/01/11 06:30:27;;;;;;;;;;;;;;;-5.42;89.10;103430.88;5030550;28;20140;-74
2024/01/11 06:32:53;;;;;;;;;;;;;;;-5.45;89.19;103430.66;5030279;28;19917;-74
2024/01/11 06:35:18;;;;;;;;;;;;;;;-5.49;89.13;103438.91;5029471;28;19921;-74
2024/01/11 06:37:43;;;;;;;;;;;;;;;-5.53;89.08;103457.38;5025933;28;19988;-74
2024/01/11 06:40:08;;;;;;;;;;;;;;;-5.57;89.28;103472.38;5032233;28;19939;-74
2024/01/11 06:42:34;;;;;;;;;;;;;;;-5.55;89.67;103471.69;5032688;28;19928;-74
2024/01/11 06:44:59;;;;;;;;;;;;;;;-5.53;89.88;103477.81;5017154;28;20124;-74
2024/01/11 06:47:24;;;;;;;;;;;;;;;-5.51;90.21;103477.88;5027289;28;20210;-74
2024/01/11 06:49:50;;;;;;;;;;;;;;;-5.51;90.51;103488.09;5016226;28;20151;-74
2024/01/11 06:52:15;;;;;;;;;;;;;;;-5.49;90.83;103490.00;5033632;28;20152;-74
2024/01/11 06:54:40;;;;;;;;;;;;;;;-5.45;91.16;103489.41;5033218;28;20223;-74
2024/01/11 06:57:05;;;;;;;;;;;;;;;-5.41;91.38;103496.50;5015213;28;19940;-74
2024/01/11 06:59:31;;;;;;;;;;;;;;;-5.36;91.73;103507.03;5014186;28;19918;-74
2024/01/11 07:01:56;;;;;;;;;;;;;;;-5.39;92.28;103511.91;5032314;28;19949;-74
2024/01/11 07:04:21;;;;;;;;;;;;;;;-5.42;93.64;103507.50;5033126;28;19917;-73
2024/01/11 07:06:47;;;;;;;;;;;;;;;-5.41;94.99;103509.25;5027168;28;20129;-73
2024/01/11 07:09:12;;;;;;;;;;;;;;;-5.37;96.14;103510.34;5032677;28;19948;-73
2024/01/11 07:11:37;;;;;;;;;;;;;;;-5.26;96.69;103517.09;5021776;28;19924;-73
2024/01/11 07:14:04;;;;;;;;;;;;;;;-5.29;97.41;103509.22;5032842;28;20120;-73
2024/01/11 07:16:29;;;;;;;;;;;;;;;-5.27;97.81;103511.88;5018184;28;19921;-73
2024/01/11 07:18:54;;;;;;;;;;;;;;;-5.26;98.37;103514.53;5027178;28;19928;-73
2024/01/11 07:21:21;;;;;;;;;;;;;;;-5.23;98.85;103507.06;5036721;28;20168;-73
2024/01/11 07:23:46;;;;;;;;;;;;;;;-5.23;99.19;103517.28;5033679;28;20038;-73
2024/01/11 07:26:11;;;;;;;;;;;;;;;-5.19;99.69;103505.59;5017338;28;19924;-73
2024/01/11 07:28:38;;;;;;;;;;;;;;;-5.15;99.85;103501.56;5018194;28;19909;-73
2024/01/11 07:31:03;;;;;;;;;;;;;;;-5.15;100.00;103501.56;5027433;28;19924;-73
2024/01/11 07:33:29;;;;;;;;;;;;;;;-5.12;99.95;103497.56;5016168;28;19985;-73
2024/01/11 07:35:54;;;;;;;;;;;;;;;-5.14;100.00;103494.03;5024356;28;19927;-73
2024/01/11 07:38:19;;;;;;;;;;;;;;;-5.18;100.00;103498.81;5036210;28;20306;-73
2024/01/11 07:40:44;;;;;;;;;;;;;;;-5.14;100.00;103496.56;5035101;28;19940;-73
2024/01/11 07:43:11;;;;;;;;;;;;;;;-5.04;100.00;103496.41;5016575;28;20197;-73
2024/01/11 07:45:36;;;;;;;;;;;;;;;-4.96;100.00;103499.47;5023274;28;19923;-73
2024/01/11 07:48:03;;;;;;;;;;;;;;;-5.00;100.00;103492.38;5036849;28;19940;-73
2024/01/11 07:50:28;;;;;;;;;;;;;;;-4.99;100.00;103481.34;5034476;28;20070;-73
2024/01/11 07:52:54;;;;;;;;;;;;;;;-4.93;100.00;103485.97;5031934;28;19924;-73
2024/01/11 07:55:23;;;;;;;;;;;;;;;-4.88;100.00;103479.50;5031595;28;19984;-73
2024/01/11 07:57:49;;;;;;;;;;;;;;;-4.85;100.00;103483.16;5024768;28;19913;-73
2024/01/11 08:00:15;;;;;;;;;;;;;;;-4.82;99.83;103483.34;5029031;28;20110;-73
2024/01/11 08:02:40;;;;;;;;;;;;;;;-4.76;99.68;103474.31;5024800;28;19917;-73
2024/01/11 08:05:06;;;;;;;;;;;;;;;-4.77;99.30;103475.09;5026473;28;19923;-73
2024/01/11 08:07:31;;;;;;;;;;;;;;;-4.82;99.05;103480.81;5027827;28;19917;-73
2024/01/11 08:09:56;;;;;;;;;;;;;;;-4.87;98.34;103483.84;5033822;28;19917;-73
2024/01/11 08:12:22;;;;;;;;;;;;;;;-4.89;98.26;103486.31;5024695;28;20251;-73
2024/01/11 08:14:47;;;;;;;;;;;;;;;-4.88;98.08;103489.72;5034793;28;20219;-73
2024/01/11 08:17:13;;;;;;;;;;;;;;;-4.91;97.90;103498.09;5026842;28;19928;-73
2024/01/11 08:19:39;;;;;;;;;;;;;;;-4.92;97.64;103500.56;5031712;28;19967;-74
2024/01/11 08:22:05;;;;;;;;;;;;;;;-4.91;97.54;103499.75;5029604;28;20097;-75
2024/01/11 08:24:30;;;;;;;;;;;;;;;-4.85;97.47;103503.59;5033483;28;19991;-74
2024/01/11 08:26:55;;;;;;;;;;;;;;;-4.83;97.59;103511.38;5034209;28;19916;-74
2024/01/11 08:29:22;;;;;;;;;;;;;;;-4.80;97.40;103508.13;5035217;28;19959;-74
2024/01/11 08:31:47;;;;;;;;;;;;;;;-4.76;97.50;103502.44;5035080;28;20233;-74
2024/01/11 08:34:12;;;;;;;;;;;;;;;-4.72;97.46;103502.72;5033531;28;19916;-74
2024/01/11 08:36:38;;;;;;;;;;;;;;;-4.68;97.30;103508.94;5034458;28;19928;-74
2024/01/11 08:39:07;;;;;;;;;;;;;;;-4.65;97.46;103498.91;5034804;28;19917;-74
2024/01/11 08:41:32;;;;;;;;;;;;;;;-4.61;97.40;103500.00;5030121;28;19940;-74
2024/01/11 08:43:58;;;;;;;;;;;;;;;-4.57;97.19;103497.72;5020728;28;20205;-74
2024/01/11 08:46:24;;;;;;;;;;;;;;;-4.55;97.14;103505.47;5028749;28;19996;-74
2024/01/11 08:48:49;;;;;;;;;;;;;;;-4.51;97.17;103510.91;5034848;28;19923;-74
2024/01/11 08:51:15;;;;;;;;;;;;;;;-4.50;97.12;103512.66;5034034;28;19988;-74
2024/01/11 08:53:40;;;;;;;;;;;;;;;-4.50;97.23;103510.09;5035058;28;19913;-74
2024/01/11 08:56:05;;;;;;;;;;;;;;;-4.46;97.25;103504.41;5034757;28;19921;-74
2024/01/11 08:58:30;;;;;;;;;;;;;;;-4.44;97.44;103519.84;5028638;28;20447;-74
2024/01/11 09:00:56;;;;;;;;;;;;;;;-4.39;97.78;103520.16;5024228;28;20391;-74
2024/01/11 09:03:21;;;;;;;;;;;;;;;-4.32;98.09;103524.88;5027074;28;20410;-74
2024/01/11 09:05:47;;;;;;;;;;;;;;;-4.28;97.93;103526.81;5032631;28;20274;-74
2024/01/11 09:08:12;;;;;;;;;;;;;;;-4.26;98.04;103531.28;5022565;28;19988;-74
2024/01/11 09:10:37;;;;;;;;;;;;;;;-4.23;98.52;103533.13;5029124;28;19924;-74
2024/01/11 09:13:02;;;;;;;;;;;;;;;-4.18;98.59;103536.88;5032217;28;19994;-74
2024/01/11 09:15:28;;;;;;;;;;;;;;;-4.21;99.82;103548.59;5023292;28;19924;-74
2024/01/11 09:17:53;;;;;;;;;;;;;;;-4.16;100.00;103549.78;5029870;28;19921;-74
2024/01/11 09:20:18;;;;;;;;;;;;;;;-4.09;100.00;103564.72;5025808;28;19962;-74
2024/01/11 09:22:45;;;;;;;;;;;;;;;-4.06;100.00;103559.78;5031998;28;19917;-74
2024/01/11 09:25:10;;;;;;;;;;;;;;;-4.02;100.00;103563.41;5025297;28;20012;-74
2024/01/11 09:27:35;;;;;;;;;;;;;;;-4.01;100.00;103565.19;5024748;28;19955;-75
2024/01/11 09:30:01;;;;;;;;;;;;;;;-3.97;100.00;103575.72;5037273;28;20221;-74
2024/01/11 09:32:26;;;;;;;;;;;;;;;-3.88;100.00;103583.09;5035756;28;19921;-74
2024/01/11 09:34:51;;;;;;;;;;;;;;;-3.84;100.00;103584.19;5036648;28;19912;-74
2024/01/11 09:37:16;;;;;;;;;;;;;;;-3.80;100.00;103584.47;5038979;28;19951;-74
2024/01/11 09:39:42;;;;;;;;;;;;;;;-3.76;100.00;103593.25;5024507;28;19925;-74
2024/01/11 09:42:11;;;;;;;;;;;;;;;-3.69;100.00;103590.28;5027988;28;19975;-74
2024/01/11 09:44:40;;;;;;;;;;;;;;;-3.64;100.00;103601.66;5020215;28;19917;-74
2024/01/11 09:47:09;;;;;;;;;;;;;;;-3.53;100.00;103598.13;5033403;28;19917;-74
2024/01/11 09:49:35;;;;;;;;;;;;;;;-3.41;100.00;103602.22;5030644;28;19917;-74
2024/01/11 09:52:01;;;;;;;;;;;;;;;-3.29;100.00;103601.28;5033263;28;19916;-74
2024/01/11 09:54:27;;;;;;;;;;;;;;;-3.19;100.00;103607.84;5023407;28;19996;-74
2024/01/11 09:56:54;;;;;;;;;;;;;;;-3.10;100.00;103616.06;5032427;28;20115;-74
2024/01/11 09:59:22;;;;;;;;;;;;;;;-3.01;100.00;103620.88;5033720;28;19912;-74
2024/01/11 10:01:47;;;;;;;;;;;;;;;-2.95;100.00;103616.13;5034122;28;19916;-74
2024/01/11 10:04:13;;;;;;;;;;;;;;;-2.87;100.00;103619.16;5033926;28;19951;-74
2024/01/11 10:06:38;;;;;;;;;;;;;;;-2.82;100.00;103621.97;5034268;28;19913;-74
2024/01/11 10:09:04;;;;;;;;;;;;;;;-2.76;100.00;103612.97;5033721;28;19913;-74
2024/01/11 10:11:29;;;;;;;;;;;;;;;-2.66;100.00;103621.19;5033554;28;19928;-74
2024/01/11 10:13:59;;;;;;;;;;;;;;;-2.59;100.00;103611.38;5034128;28;20019;-74
2024/01/11 10:16:24;;;;;;;;;;;;;;;-2.51;100.00;103606.69;5033627;28;19995;-74
2024/01/11 10:18:50;;;;;;;;;;;;;;;-2.45;100.00;103609.63;5032980;28;19917;-74
2024/01/11 10:21:15;;;;;;;;;;;;;;;-2.39;100.00;103609.06;5033850;28;20491;-74
2024/01/11 10:23:41;;;;;;;;;;;;;;;-2.35;100.00;103601.66;5028883;28;20142;-74
2024/01/11 10:26:09;;;;;;;;;;;;;;;-2.30;100.00;103601.91;5024192;28;19917;-74
2024/01/11 10:28:38;;;;;;;;;;;;;;;-2.26;100.00;103603.84;5030810;28;19923;-74
2024/01/11 10:31:06;;;;;;;;;;;;;;;-2.22;100.00;103599.75;5024753;28;19939;-74
2024/01/11 10:33:33;;;;;;;;;;;;;;;-2.20;100.00;103606.75;5024040;28;19932;-74
2024/01/11 10:35:59;;;;;;;;;;;;;;;-2.14;100.00;103593.38;5023823;28;19925;-74
2024/01/11 10:38:25;;;;;;;;;;;;;;;-2.07;100.00;103589.44;5024085;28;20446;-74
2024/01/11 10:40:52;;;;;;;;;;;;;;;-2.02;100.00;103594.06;5025991;28;19928;-74
2024/01/11 10:43:21;;;;;;;;;;;;;;;-2.00;100.00;103597.59;5024897;28;19917;-74
2024/01/11 10:45:48;;;;;;;;;;;;;;;-1.95;100.00;103593.63;5024148;28;19925;-74
2024/01/11 10:48:14;;;;;;;;;;;;;;;-1.91;100.00;103589.53;5023783;28;20112;-74
2024/01/11 10:50:43;;;;;;;;;;;;;;;-1.88;100.00;103588.81;5027019;28;19909;-74
2024/01/11 10:53:14;;;;;;;;;;;;;;;-1.83;100.00;103595.09;5034813;28;19917;-74
2024/01/11 10:55:42;;;;;;;;;;;;;;;-1.77;100.00;103603.97;5036723;28;19921;-74
2024/01/11 10:58:07;;;;;;;;;;;;;;;-1.74;100.00;103609.31;5033878;28;19924;-73
2024/01/11 11:00:35;;;;;;;;;;;;;;;-1.68;100.00;103613.88;5031839;28;19917;-73
2024/01/11 11:03:00;;;;;;;;;;;;;;;-1.66;100.00;103617.41;5031512;28;20276;-73
2024/01/11 11:05:28;;;;;;;;;;;;;;;-1.65;100.00;103624.34;5037281;28;19928;-73
2024/01/11 11:07:54;;;;;;;;;;;;;;;-1.63;100.00;103622.75;5036658;28;20170;-73
2024/01/11 11:10:19;;;;;;;;;;;;;;;-1.59;100.00;103628.94;5035887;28;19917;-73
2024/01/11 11:12:48;;;;;;;;;;;;;;;-1.52;100.00;103636.16;5033123;28;19983;-73
2024/01/11 11:15:14;;;;;;;;;;;;;;;-1.46;100.00;103644.19;5032239;28;19910;-73
2024/01/11 11:17:40;;;;;;;;;;;;;;;-1.44;100.00;103636.56;5031329;28;20526;-73
2024/01/11 11:20:11;;;;;;;;;;;;;;;-1.40;100.00;103633.34;5030582;28;19921;-73
2024/01/11 11:22:37;;;;;;;;;;;;;;;-1.34;100.00;103631.13;5035621;28;19972;-73
2024/01/11 11:25:09;;;;;;;;;;;;;;;-1.28;100.00;103630.56;5036207;28;20264;-73
2024/01/11 11:27:34;;;;;;;;;;;;;;;-1.26;100.00;103624.69;5033232;28;19958;-73
2024/01/11 11:29:59;;;;;;;;;;;;;;;-1.18;100.00;103619.97;5029615;28;20140;-73
2024/01/11 11:32:34;;;;;;;;;;;;;;;-1.08;100.00;103613.63;5036875;28;19913;-73
2024/01/11 11:35:00;;;;;;;;;;;;;;;-1.07;100.00;103616.28;5021909;28;19976;-73
2024/01/11 11:37:25;;;;;;;;;;;;;;;-1.02;100.00;103611.34;5029768;28;19924;-73
2024/01/11 11:39:50;;;;;;;;;;;;;;;-0.99;100.00;103611.53;5022531;28;19921;-74
2024/01/11 11:42:15;;;;;;;;;;;;;;;-0.95;100.00;103610.84;5036473;28;20227;-73
2024/01/11 11:44:50;;;;;;;;;;;;;;;-0.89;100.00;103607.72;5023455;28;19960;-73
2024/01/11 11:47:22;;;;;;;;;;;;;;;-0.84;100.00;103603.69;5023719;28;19917;-73
2024/01/11 11:50:00;;;;;;;;;;;;;;;-0.78;100.00;103602.31;5033785;28;20148;-73
2024/01/11 11:52:26;;;;;;;;;;;;;;;-0.70;100.00;103602.69;5025294;28;20004;-73
2024/01/11 11:54:52;;;;;;;;;;;;;;;-0.62;100.00;103597.94;5027995;28;19917;-73
2024/01/11 11:57:17;;;;;;;;;;;;;;;-0.57;100.00;103587.88;5032117;28;19945;-73
2024/01/11 11:59:43;;;;;;;;;;;;;;;-0.51;100.00;103585.59;5025332;28;19921;-73
2024/01/11 12:02:16;;;;;;;;;;;;;;;-0.46;100.00;103592.72;5033508;28;19917;-73
2024/01/11 12:04:45;;;;;;;;;;;;;;;-0.41;100.00;103586.13;5028985;28;19963;-73
2024/01/11 12:07:11;;;;;;;;;;;;;;;-0.37;100.00;103581.13;5027894;28;19917;-73
2024/01/11 12:09:37;;;;;;;;;;;;;;;-0.33;100.00;103586.47;5027324;28;19924;-73
2024/01/11 12:12:03;;;;;;;;;;;;;;;-0.28;100.00;103576.41;5028591;28;19992;-73
2024/01/11 12:14:28;;;;;;;;;;;;;;;-0.21;100.00;103566.47;5027060;28;19917;-73
2024/01/11 12:16:59;;;;;;;;;;;;;;;-0.18;100.00;103564.84;5028916;28;19917;-73
2024/01/11 12:19:25;;;;;;;;;;;;;;;-0.09;100.00;103563.63;5027106;28;19932;-73
2024/01/11 12:21:51;;;;;;;;;;;;;;;-0.09;100.00;103565.28;5024759;28;19917;-73
2024/01/11 12:24:16;;;;;;;;;;;;;;;-0.05;100.00;103560.38;5027897;28;19913;-73
2024/01/11 12:26:42;;;;;;;;;;;;;;;-0.02;100.00;103560.50;5026953;28;19985;-73